Time;durP1;ratioP1;P1;durP2;ratioP2;P2;SDS_P1;SDS_P2;PMS_P1;PMS_P2;Temp;Humidity;BMP_temperature;BMP_pressure;BME280_temperature;BME280_humidity;BME280_pressure;Samples;Min_cycle;Max_cycle;Signal;HPM_P1;HPM_P2
2023/10/22 00:00:31;;;;;;;;;;;16.10;88.30;;;;;;4147114;28;20286;-47
2023/10/22 00:03:12;;;;;;;;;;;16.10;89.20;;;;;;4134309;28;20031;-49
2023/10/22 00:05:53;;;;;;;;;;;16.10;88.30;;;;;;4138265;28;19952;-51
2023/10/22 00:08:34;;;;;;;;;;;16.10;88.40;;;;;;4138380;28;20459;-51
2023/10/22 00:11:16;;;;;;;;;;;16.10;88.40;;;;;;4156249;28;19940;-47
2023/10/22 00:13:57;;;;;;;;;;;16.10;88.30;;;;;;4157394;28;19994;-49
2023/10/22 00:16:37;;;;;;;;;;;16.10;88.30;;;;;;4156735;28;20540;-50
2023/10/22 00:19:18;;;;;;;;;;;16.10;88.40;;;;;;4149191;28;20270;-50
2023/10/22 00:21:59;;;;;;;;;;;16.10;88.40;;;;;;4142652;28;19936;-48
2023/10/22 00:24:41;;;;;;;;;;;16.10;88.20;;;;;;4152694;28;19932;-47
2023/10/22 00:27:23;;;;;;;;;;;16.10;88.10;;;;;;4155596;28;19932;-49
2023/10/22 00:30:05;;;;;;;;;;;16.10;88.30;;;;;;4156045;28;20302;-47
2023/10/22 00:32:47;;;;;;;;;;;16.10;88.50;;;;;;4154267;28;19932;-51
2023/10/22 00:35:28;;;;;;;;;;;16.10;88.60;;;;;;4138822;28;20394;-48
2023/10/22 00:38:09;;;;;;;;;;;16.10;88.40;;;;;;4157199;28;20381;-50
2023/10/22 00:40:50;;;;;;;;;;;16.10;88.40;;;;;;4153554;28;19978;-48
2023/10/22 00:43:33;;;;;;;;;;;16.10;88.50;;;;;;4154650;28;20373;-51
2023/10/22 00:46:18;;;;;;;;;;;16.10;88.60;;;;;;4156963;28;19971;-49
2023/10/22 00:48:59;;;;;;;;;;;16.10;88.40;;;;;;4156901;28;19936;-49
2023/10/22 00:51:40;;;;;;;;;;;16.10;88.50;;;;;;4155904;28;20074;-49
2023/10/22 00:54:21;;;;;;;;;;;16.10;88.60;;;;;;4144984;28;19931;-51
2023/10/22 00:57:02;;;;;;;;;;;16.10;88.70;;;;;;4157026;28;19932;-51
2023/10/22 00:59:44;;;;;;;;;;;16.10;88.80;;;;;;4154515;28;20027;-51
2023/10/22 01:02:25;;;;;;;;;;;16.10;88.60;;;;;;4147521;28;19933;-54
2023/10/22 01:05:08;;;;;;;;;;;16.00;88.70;;;;;;4149855;28;19933;-51
2023/10/22 01:07:49;;;;;;;;;;;16.10;88.80;;;;;;4133388;28;19935;-50
2023/10/22 01:10:30;;;;;;;;;;;16.10;88.70;;;;;;4146475;28;19936;-51
2023/10/22 01:13:12;;;;;;;;;;;16.10;88.70;;;;;;4156484;28;19936;-50
2023/10/22 01:15:54;;;;;;;;;;;16.00;88.70;;;;;;4156825;28;19932;-48
2023/10/22 01:18:35;;;;;;;;;;;16.00;88.70;;;;;;4167329;28;19940;-50
2023/10/22 01:21:16;;;;;;;;;;;16.00;88.70;;;;;;4153682;28;19964;-49
2023/10/22 01:23:58;;;;;;;;;;;16.00;88.70;;;;;;4154532;28;20336;-48
2023/10/22 01:26:40;;;;;;;;;;;16.00;88.90;;;;;;4165952;28;20075;-46
2023/10/22 01:29:22;;;;;;;;;;;16.00;89.80;;;;;;4139805;28;19933;-48
2023/10/22 01:32:03;;;;;;;;;;;16.00;89.00;;;;;;4148711;28;19931;-48
2023/10/22 01:34:44;;;;;;;;;;;16.00;88.80;;;;;;4152959;28;20022;-49
2023/10/22 01:37:25;;;;;;;;;;;16.00;89.30;;;;;;4152458;28;19958;-47
2023/10/22 01:40:08;;;;;;;;;;;16.00;88.70;;;;;;4156851;28;19936;-48
2023/10/22 01:42:50;;;;;;;;;;;16.00;88.80;;;;;;4138627;28;19933;-47
2023/10/22 01:45:31;;;;;;;;;;;16.00;89.80;;;;;;4125291;28;19936;-47
2023/10/22 01:48:14;;;;;;;;;;;16.00;89.10;;;;;;4120675;28;19933;-47
2023/10/22 01:50:54;;;;;;;;;;;16.00;89.40;;;;;;4148387;28;20345;-50
2023/10/22 01:53:36;;;;;;;;;;;16.00;90.10;;;;;;4151804;28;20401;-48
2023/10/22 01:56:19;;;;;;;;;;;16.00;89.50;;;;;;4140778;28;20289;-52
2023/10/22 01:59:00;;;;;;;;;;;16.00;89.40;;;;;;4148973;28;20502;-49
2023/10/22 02:01:42;;;;;;;;;;;16.00;89.60;;;;;;4154492;28;20010;-48
2023/10/22 02:04:22;;;;;;;;;;;16.00;89.80;;;;;;4155110;28;20142;-48
2023/10/22 02:07:04;;;;;;;;;;;16.00;89.80;;;;;;4166165;28;19999;-51
2023/10/22 02:09:45;;;;;;;;;;;16.00;90.20;;;;;;4155660;28;20059;-51
2023/10/22 02:12:29;;;;;;;;;;;16.00;89.90;;;;;;4166142;28;19935;-48
2023/10/22 02:15:10;;;;;;;;;;;16.00;90.00;;;;;;4155768;28;19990;-49
2023/10/22 02:17:52;;;;;;;;;;;16.00;90.10;;;;;;4155535;28;20381;-49
2023/10/22 02:20:33;;;;;;;;;;;16.00;90.20;;;;;;4143634;28;19935;-49
2023/10/22 02:23:14;;;;;;;;;;;16.00;90.60;;;;;;4153963;28;19936;-48
2023/10/22 02:25:55;;;;;;;;;;;16.00;90.30;;;;;;4165659;28;19932;-47
2023/10/22 02:28:38;;;;;;;;;;;16.00;90.40;;;;;;4138598;28;19933;-47
2023/10/22 02:31:19;;;;;;;;;;;16.00;90.40;;;;;;4124642;28;19937;-47
2023/10/22 02:34:03;;;;;;;;;;;15.90;90.30;;;;;;4121178;28;19965;-52
2023/10/22 02:36:44;;;;;;;;;;;16.00;90.50;;;;;;4124639;28;19940;-48
2023/10/22 02:39:25;;;;;;;;;;;16.00;90.60;;;;;;4149975;28;20002;-48
2023/10/22 02:42:06;;;;;;;;;;;15.90;90.60;;;;;;4155469;28;19933;-48
2023/10/22 02:44:48;;;;;;;;;;;15.90;90.70;;;;;;4141729;28;19937;-50
2023/10/22 02:47:29;;;;;;;;;;;15.90;91.10;;;;;;4152637;28;20373;-48
2023/10/22 02:50:11;;;;;;;;;;;15.90;90.80;;;;;;4155395;28;20070;-49
2023/10/22 02:52:51;;;;;;;;;;;15.90;90.90;;;;;;4138649;28;19933;-47
2023/10/22 02:55:33;;;;;;;;;;;15.90;91.30;;;;;;4137991;28;19983;-48
2023/10/22 02:58:13;;;;;;;;;;;15.90;90.90;;;;;;4138909;28;19976;-47
2023/10/22 03:00:56;;;;;;;;;;;15.90;91.00;;;;;;4154901;28;19932;-48
2023/10/22 03:03:40;;;;;;;;;;;15.90;91.00;;;;;;4153752;28;19936;-47
2023/10/22 03:06:21;;;;;;;;;;;15.90;91.00;;;;;;4152577;28;19997;-47
2023/10/22 03:09:03;;;;;;;;;;;15.90;91.10;;;;;;4154421;28;20305;-46
2023/10/22 03:11:44;;;;;;;;;;;15.90;91.20;;;;;;4154918;28;20011;-49
2023/10/22 03:14:25;;;;;;;;;;;15.90;91.20;;;;;;4154027;28;20021;-48
2023/10/22 03:17:07;;;;;;;;;;;15.90;91.20;;;;;;4154892;28;19995;-46
2023/10/22 03:19:48;;;;;;;;;;;15.90;91.30;;;;;;4155367;28;20062;-48
2023/10/22 03:22:30;;;;;;;;;;;15.90;91.40;;;;;;4165069;28;19940;-46
2023/10/22 03:25:12;;;;;;;;;;;15.90;91.40;;;;;;4154330;28;20401;-47
2023/10/22 03:27:53;;;;;;;;;;;15.90;91.40;;;;;;4138652;28;19933;-47
2023/10/22 03:30:37;;;;;;;;;;;15.90;91.50;;;;;;4136824;28;19933;-47
2023/10/22 03:33:19;;;;;;;;;;;15.90;91.50;;;;;;4141995;28;20484;-46
2023/10/22 03:36:00;;;;;;;;;;;15.90;91.50;;;;;;4154899;28;19932;-47
2023/10/22 03:38:40;;;;;;;;;;;15.90;91.60;;;;;;4154812;28;20396;-49
2023/10/22 03:41:21;;;;;;;;;;;15.90;91.60;;;;;;4142036;28;20024;-50
2023/10/22 03:44:02;;;;;;;;;;;15.90;91.60;;;;;;4156251;28;19931;-47
2023/10/22 03:46:46;;;;;;;;;;;15.80;91.70;;;;;;4158325;28;19951;-47
2023/10/22 03:49:28;;;;;;;;;;;15.80;91.70;;;;;;4152469;28;19957;-46
2023/10/22 03:52:09;;;;;;;;;;;15.80;91.80;;;;;;4157532;28;19983;-47
2023/10/22 03:54:51;;;;;;;;;;;15.80;91.80;;;;;;4154119;28;19936;-49
2023/10/22 03:57:32;;;;;;;;;;;15.80;92.20;;;;;;4156720;28;20393;-46
2023/10/22 04:00:14;;;;;;;;;;;15.80;91.90;;;;;;4141396;28;19975;-47
2023/10/22 04:02:55;;;;;;;;;;;15.80;91.80;;;;;;4157199;28;19931;-49
2023/10/22 04:05:37;;;;;;;;;;;15.80;91.90;;;;;;4156930;28;20079;-46
2023/10/22 04:08:17;;;;;;;;;;;15.80;91.90;;;;;;4156714;28;19931;-47
2023/10/22 04:10:58;;;;;;;;;;;15.80;91.90;;;;;;4141150;28;19964;-46
2023/10/22 04:13:39;;;;;;;;;;;15.80;91.90;;;;;;4126220;28;19936;-46
2023/10/22 04:16:19;;;;;;;;;;;15.80;92.00;;;;;;4155697;28;19933;-49
2023/10/22 04:19:00;;;;;;;;;;;15.80;92.00;;;;;;4157077;28;19936;-48
2023/10/22 04:21:42;;;;;;;;;;;15.80;92.00;;;;;;4157300;28;19932;-47
2023/10/22 04:24:23;;;;;;;;;;;15.80;92.00;;;;;;4167178;28;19935;-48
2023/10/22 04:27:05;;;;;;;;;;;15.80;92.00;;;;;;4155779;28;19940;-47
2023/10/22 04:29:47;;;;;;;;;;;15.80;92.10;;;;;;4156409;28;20022;-54
2023/10/22 04:32:28;;;;;;;;;;;15.80;92.10;;;;;;4141747;28;19937;-50
2023/10/22 04:35:08;;;;;;;;;;;15.80;92.10;;;;;;4140169;28;19932;-51
2023/10/22 04:37:53;;;;;;;;;;;15.80;92.10;;;;;;4140577;28;20071;-47
2023/10/22 04:40:34;;;;;;;;;;;15.80;92.20;;;;;;4156821;28;20067;-48
2023/10/22 04:43:15;;;;;;;;;;;15.80;92.20;;;;;;4141423;28;19932;-46
2023/10/22 04:45:55;;;;;;;;;;;15.80;92.20;;;;;;4124892;28;20023;-47
2023/10/22 04:48:36;;;;;;;;;;;15.80;92.20;;;;;;4124635;28;20382;-47
2023/10/22 04:51:18;;;;;;;;;;;15.80;92.20;;;;;;4142282;28;20381;-48
2023/10/22 04:54:00;;;;;;;;;;;15.80;92.30;;;;;;4157239;28;20369;-47
2023/10/22 04:56:41;;;;;;;;;;;15.80;92.30;;;;;;4139996;28;20409;-53
2023/10/22 04:59:21;;;;;;;;;;;15.80;92.30;;;;;;4156373;28;19932;-48
2023/10/22 05:02:02;;;;;;;;;;;15.80;92.40;;;;;;4140532;28;19979;-50
2023/10/22 05:04:45;;;;;;;;;;;15.80;92.80;;;;;;4140505;28;20578;-49
2023/10/22 05:07:26;;;;;;;;;;;15.80;92.50;;;;;;4137801;28;20274;-48
2023/10/22 05:10:08;;;;;;;;;;;15.80;92.50;;;;;;4140459;28;19936;-49
2023/10/22 05:12:49;;;;;;;;;;;15.80;92.90;;;;;;4140338;28;19935;-47
2023/10/22 05:15:30;;;;;;;;;;;15.80;92.50;;;;;;4155860;28;19932;-48
2023/10/22 05:18:10;;;;;;;;;;;15.80;92.50;;;;;;4154546;28;19936;-49
2023/10/22 05:20:51;;;;;;;;;;;15.80;92.60;;;;;;4141869;28;20141;-51
2023/10/22 05:23:32;;;;;;;;;;;15.80;92.60;;;;;;4156010;28;19961;-50
2023/10/22 05:26:15;;;;;;;;;;;15.80;92.60;;;;;;4141078;28;19936;-50
2023/10/22 05:28:56;;;;;;;;;;;15.80;92.70;;;;;;4155622;28;20393;-48
2023/10/22 05:31:36;;;;;;;;;;;15.80;92.70;;;;;;4154801;28;20018;-52
2023/10/22 05:34:17;;;;;;;;;;;15.80;92.70;;;;;;4156666;28;20042;-50
2023/10/22 05:36:58;;;;;;;;;;;15.70;92.70;;;;;;4156260;28;19932;-49
2023/10/22 05:39:38;;;;;;;;;;;15.70;92.80;;;;;;4155809;28;19941;-49
2023/10/22 05:42:20;;;;;;;;;;;15.70;92.80;;;;;;4140546;28;19932;-47
2023/10/22 05:45:01;;;;;;;;;;;15.70;92.90;;;;;;4139882;28;19979;-50
2023/10/22 05:47:42;;;;;;;;;;;15.80;92.90;;;;;;4140757;28;19997;-51
2023/10/22 05:50:23;;;;;;;;;;;15.70;92.90;;;;;;4139346;28;20403;-48
2023/10/22 05:53:04;;;;;;;;;;;15.80;93.10;;;;;;4150660;28;20415;-46
2023/10/22 05:55:45;;;;;;;;;;;15.80;93.20;;;;;;4154757;28;19932;-46
2023/10/22 05:58:27;;;;;;;;;;;15.80;93.20;;;;;;4155461;28;19932;-48
2023/10/22 06:01:08;;;;;;;;;;;15.80;93.20;;;;;;4155706;28;19931;-49
2023/10/22 06:03:49;;;;;;;;;;;15.80;93.30;;;;;;4165995;28;20079;-49
2023/10/22 06:06:30;;;;;;;;;;;15.80;93.40;;;;;;4153091;28;19975;-49
2023/10/22 06:09:12;;;;;;;;;;;15.80;93.40;;;;;;4155355;28;19936;-51
2023/10/22 06:11:53;;;;;;;;;;;15.80;93.40;;;;;;4147784;28;19932;-51
2023/10/22 06:14:36;;;;;;;;;;;15.80;93.30;;;;;;4155759;28;19936;-50
2023/10/22 06:17:17;;;;;;;;;;;15.80;93.40;;;;;;4155567;28;20393;-48
2023/10/22 06:19:57;;;;;;;;;;;15.80;93.40;;;;;;4153728;28;20684;-47
2023/10/22 06:22:38;;;;;;;;;;;15.80;93.40;;;;;;4155228;28;19940;-49
2023/10/22 06:25:19;;;;;;;;;;;15.80;93.50;;;;;;4154611;28;19959;-53
2023/10/22 06:28:00;;;;;;;;;;;15.80;93.60;;;;;;4153971;28;19932;-49
2023/10/22 06:30:43;;;;;;;;;;;15.80;93.60;;;;;;4136140;28;19975;-54
2023/10/22 06:33:24;;;;;;;;;;;15.80;93.70;;;;;;4138330;28;19952;-48
2023/10/22 06:36:12;;;;;;;;;;;15.80;93.70;;;;;;4122422;28;20683;-52
2023/10/22 06:38:53;;;;;;;;;;;15.80;93.90;;;;;;4138978;28;19936;-49
2023/10/22 06:41:34;;;;;;;;;;;15.80;94.20;;;;;;4124184;28;20751;-50
2023/10/22 06:44:15;;;;;;;;;;;15.80;94.90;;;;;;4138985;28;19932;-52
2023/10/22 06:46:57;;;;;;;;;;;15.90;95.20;;;;;;4153748;28;19995;-51
2023/10/22 06:49:37;;;;;;;;;;;15.80;95.00;;;;;;4154947;28;19936;-50
2023/10/22 06:52:18;;;;;;;;;;;15.90;94.80;;;;;;4153202;28;19936;-52
2023/10/22 06:54:59;;;;;;;;;;;15.80;94.50;;;;;;4154874;28;19932;-51
2023/10/22 06:57:40;;;;;;;;;;;15.90;94.30;;;;;;4154814;28;19935;-50
2023/10/22 07:00:22;;;;;;;;;;;16.00;94.40;;;;;;4154784;28;19994;-53
2023/10/22 07:03:04;;;;;;;;;;;16.10;93.80;;;;;;4154717;28;19948;-55
2023/10/22 07:05:45;;;;;;;;;;;16.20;93.60;;;;;;4153809;28;20022;-55
2023/10/22 07:08:27;;;;;;;;;;;16.20;93.40;;;;;;4139321;28;19991;-54
2023/10/22 07:11:08;;;;;;;;;;;16.30;93.30;;;;;;4151621;28;19933;-56
2023/10/22 07:13:48;;;;;;;;;;;16.30;93.20;;;;;;4155186;28;19935;-55
2023/10/22 07:16:29;;;;;;;;;;;16.30;93.40;;;;;;4155150;28;19974;-54
2023/10/22 07:19:11;;;;;;;;;;;16.30;93.00;;;;;;4153859;28;20006;-52
2023/10/22 07:21:52;;;;;;;;;;;16.30;92.90;;;;;;4154456;28;19936;-51
2023/10/22 07:24:34;;;;;;;;;;;16.30;92.90;;;;;;4138928;28;19979;-54
2023/10/22 07:27:15;;;;;;;;;;;16.30;92.90;;;;;;4136327;28;19937;-52
2023/10/22 07:29:57;;;;;;;;;;;16.30;92.90;;;;;;4154315;28;20060;-54
2023/10/22 07:32:37;;;;;;;;;;;16.30;92.90;;;;;;4154737;28;19932;-55
2023/10/22 07:35:20;;;;;;;;;;;16.20;92.90;;;;;;4138319;28;20011;-54
2023/10/22 07:38:00;;;;;;;;;;;16.20;92.90;;;;;;4153230;28;19932;-54
2023/10/22 07:40:42;;;;;;;;;;;16.20;93.10;;;;;;4154755;28;19940;-54
2023/10/22 07:43:24;;;;;;;;;;;16.20;93.00;;;;;;4153447;28;19933;-53
2023/10/22 07:46:05;;;;;;;;;;;16.20;93.00;;;;;;4154517;28;19936;-54
2023/10/22 07:48:46;;;;;;;;;;;16.10;93.10;;;;;;4138694;28;19932;-55
2023/10/22 07:51:29;;;;;;;;;;;16.10;93.20;;;;;;4151468;28;20362;-51
2023/10/22 07:54:09;;;;;;;;;;;16.10;93.30;;;;;;4151730;28;20063;-51
2023/10/22 07:56:51;;;;;;;;;;;16.10;93.70;;;;;;4147188;28;20019;-54
2023/10/22 07:59:31;;;;;;;;;;;16.10;93.40;;;;;;4154548;28;19978;-47
2023/10/22 08:02:11;;;;;;;;;;;16.10;93.50;;;;;;4145229;28;20051;-49
2023/10/22 08:04:52;;;;;;;;;;;16.00;93.40;;;;;;4138372;28;19937;-48
2023/10/22 08:07:34;;;;;;;;;;;16.10;93.90;;;;;;4151784;28;19947;-50
2023/10/22 08:10:15;;;;;;;;;;;16.00;93.50;;;;;;4145750;28;20098;-50
2023/10/22 08:12:56;;;;;;;;;;;16.00;93.60;;;;;;4142011;28;20010;-48
2023/10/22 08:15:37;;;;;;;;;;;15.90;93.60;;;;;;4136569;28;19932;-50
2023/10/22 08:18:18;;;;;;;;;;;15.90;93.60;;;;;;4136125;28;19937;-48
2023/10/22 08:21:03;;;;;;;;;;;16.00;93.60;;;;;;4141397;28;19936;-49
2023/10/22 08:23:47;;;;;;;;;;;15.90;93.70;;;;;;4137586;28;19971;-48
2023/10/22 08:26:28;;;;;;;;;;;15.90;93.70;;;;;;4143139;28;20018;-49
2023/10/22 08:29:09;;;;;;;;;;;15.90;93.70;;;;;;4152644;28;19983;-49
2023/10/22 08:31:50;;;;;;;;;;;15.90;93.70;;;;;;4156319;28;20011;-48
2023/10/22 08:34:31;;;;;;;;;;;15.90;93.70;;;;;;4129617;28;19933;-51
2023/10/22 08:37:12;;;;;;;;;;;15.90;93.70;;;;;;4154631;28;19936;-51
2023/10/22 08:39:56;;;;;;;;;;;15.90;93.70;;;;;;4140951;28;20016;-51
2023/10/22 08:42:37;;;;;;;;;;;15.90;93.60;;;;;;4152041;28;19975;-51
2023/10/22 08:45:19;;;;;;;;;;;15.90;93.60;;;;;;4139096;28;19936;-50
2023/10/22 08:48:02;;;;;;;;;;;15.90;93.70;;;;;;4132373;28;19937;-49
2023/10/22 08:50:44;;;;;;;;;;;15.90;94.00;;;;;;4140787;28;19941;-50
2023/10/22 08:53:25;;;;;;;;;;;16.10;93.90;;;;;;4156435;28;19992;-51
2023/10/22 08:56:07;;;;;;;;;;;16.30;93.70;;;;;;4155122;28;20377;-49
2023/10/22 08:58:48;;;;;;;;;;;16.70;93.30;;;;;;4152640;28;19931;-51
2023/10/22 09:01:29;;;;;;;;;;;17.00;92.70;;;;;;4154874;28;19932;-54
2023/10/22 09:04:10;;;;;;;;;;;17.30;92.00;;;;;;4139190;28;20060;-57
2023/10/22 09:06:53;;;;;;;;;;;17.70;91.40;;;;;;4136734;28;19952;-56
2023/10/22 09:09:35;;;;;;;;;;;18.00;90.70;;;;;;4138058;28;19933;-50
2023/10/22 09:12:22;;;;;;;;;;;18.30;90.10;;;;;;4154221;28;20054;-56
2023/10/22 09:15:03;;;;;;;;;;;18.70;89.00;;;;;;4139908;28;20341;-52
2023/10/22 09:17:44;;;;;;;;;;;18.80;87.50;;;;;;4149748;28;20401;-55
2023/10/22 09:20:29;;;;;;;;;;;19.00;87.90;;;;;;4146201;28;20512;-53
2023/10/22 09:23:15;;;;;;;;;;;19.00;86.30;;;;;;4123419;28;20401;-53
2023/10/22 09:25:57;;;;;;;;;;;19.10;86.30;;;;;;4147452;28;19949;-54
2023/10/22 09:28:39;;;;;;;;;;;19.00;85.60;;;;;;4156244;28;19936;-56
2023/10/22 09:31:25;;;;;;;;;;;19.00;85.80;;;;;;4154809;28;20385;-54
2023/10/22 09:34:23;;;;;;;;;;;19.00;85.90;;;;;;4156085;28;19932;-56
2023/10/22 09:37:03;;;;;;;;;;;19.00;86.00;;;;;;4154089;28;19940;-56
2023/10/22 09:39:45;;;;;;;;;;;18.90;86.20;;;;;;4155939;28;19931;-51
2023/10/22 09:42:27;;;;;;;;;;;18.90;86.40;;;;;;4154552;28;20044;-53
2023/10/22 09:45:09;;;;;;;;;;;18.90;85.90;;;;;;4139036;28;19932;-51
2023/10/22 09:47:51;;;;;;;;;;;18.90;85.00;;;;;;4156005;28;20388;-52
2023/10/22 09:50:48;;;;;;;;;;;19.00;85.30;;;;;;4154320;28;20392;-57
2023/10/22 09:53:31;;;;;;;;;;;19.00;86.00;;;;;;4145906;28;20307;-54
2023/10/22 09:56:12;;;;;;;;;;;19.00;84.70;;;;;;4156193;28;19931;-56
2023/10/22 09:58:56;;;;;;;;;;;19.00;85.00;;;;;;4155711;28;19947;-55
2023/10/22 10:01:39;;;;;;;;;;;19.00;85.10;;;;;;4155097;28;19933;-54
2023/10/22 10:04:22;;;;;;;;;;;19.10;84.60;;;;;;4137990;28;19956;-54
2023/10/22 10:07:04;;;;;;;;;;;19.10;84.40;;;;;;4150289;28;19948;-56
2023/10/22 10:09:47;;;;;;;;;;;19.10;84.00;;;;;;4139897;28;19944;-56
2023/10/22 10:12:31;;;;;;;;;;;19.10;83.50;;;;;;4137690;28;19932;-56
2023/10/22 10:15:26;;;;;;;;;;;19.10;83.50;;;;;;4133830;28;20087;-55
2023/10/22 10:18:09;;;;;;;;;;;19.10;83.80;;;;;;4122613;28;20266;-56
2023/10/22 10:20:52;;;;;;;;;;;19.10;84.00;;;;;;4126644;28;20005;-56
2023/10/22 10:23:33;;;;;;;;;;;19.00;84.20;;;;;;4153215;28;19935;-55
2023/10/22 10:26:28;;;;;;;;;;;19.00;84.00;;;;;;4139100;28;20040;-55
2023/10/22 10:29:13;;;;;;;;;;;19.00;84.20;;;;;;4148430;28;19931;-56
2023/10/22 10:31:55;;;;;;;;;;;18.90;84.10;;;;;;4147864;28;20409;-56
2023/10/22 10:34:39;;;;;;;;;;;18.90;84.30;;;;;;4153308;28;19932;-55
2023/10/22 10:37:21;;;;;;;;;;;18.80;83.00;;;;;;4165182;28;19936;-55
2023/10/22 10:40:04;;;;;;;;;;;18.80;82.90;;;;;;4140345;28;19936;-56
2023/10/22 10:42:48;;;;;;;;;;;18.70;83.50;;;;;;4152002;28;19932;-56
2023/10/22 10:45:29;;;;;;;;;;;18.80;83.50;;;;;;4150378;28;19982;-55
2023/10/22 10:48:25;;;;;;;;;;;18.80;84.40;;;;;;4155327;28;19935;-56
2023/10/22 10:51:17;;;;;;;;;;;18.80;82.90;;;;;;4153646;28;19955;-56
2023/10/22 10:54:18;;;;;;;;;;;18.80;82.60;;;;;;4148271;28;19979;-56
2023/10/22 10:56:59;;;;;;;;;;;18.80;82.10;;;;;;4139588;28;20038;-55
2023/10/22 10:59:40;;;;;;;;;;;18.80;82.00;;;;;;4138615;28;20056;-55
2023/10/22 11:02:21;;;;;;;;;;;18.90;82.80;;;;;;4154164;28;19932;-49
2023/10/22 11:05:01;;;;;;;;;;;18.90;82.70;;;;;;4123636;28;19984;-50
2023/10/22 11:07:45;;;;;;;;;;;19.00;82.70;;;;;;4137421;28;19933;-48
2023/10/22 11:10:28;;;;;;;;;;;19.00;81.90;;;;;;4140553;28;19948;-53
2023/10/22 11:13:09;;;;;;;;;;;19.10;81.80;;;;;;4154504;28;19979;-50
2023/10/22 11:15:53;;;;;;;;;;;19.10;80.80;;;;;;4139978;28;19936;-51
2023/10/22 11:18:53;;;;;;;;;;;19.10;81.70;;;;;;4138215;28;19932;-50
2023/10/22 11:21:36;;;;;;;;;;;19.10;81.20;;;;;;4136720;28;19932;-55
2023/10/22 11:24:20;;;;;;;;;;;19.10;81.60;;;;;;4137689;28;20056;-56
2023/10/22 11:27:02;;;;;;;;;;;19.10;82.30;;;;;;4153117;28;19932;-52
2023/10/22 11:29:44;;;;;;;;;;;19.00;82.10;;;;;;4154272;28;19952;-52
2023/10/22 11:32:25;;;;;;;;;;;19.00;81.20;;;;;;4154079;28;20063;-52
2023/10/22 11:35:07;;;;;;;;;;;19.00;82.00;;;;;;4143374;28;19944;-55
2023/10/22 11:37:48;;;;;;;;;;;19.00;81.70;;;;;;4151935;28;20022;-52
2023/10/22 11:40:30;;;;;;;;;;;19.00;81.20;;;;;;4153032;28;20074;-55
2023/10/22 11:43:15;;;;;;;;;;;18.90;81.80;;;;;;4151110;28;19947;-55
2023/10/22 11:45:56;;;;;;;;;;;18.90;82.40;;;;;;4153120;28;19936;-54
2023/10/22 11:48:44;;;;;;;;;;;18.90;83.20;;;;;;4153110;28;20427;-56
2023/10/22 11:51:25;;;;;;;;;;;18.90;81.60;;;;;;4153379;28;20462;-55
2023/10/22 11:54:06;;;;;;;;;;;18.90;82.00;;;;;;4149997;28;20382;-55
2023/10/22 11:56:48;;;;;;;;;;;18.90;82.00;;;;;;4154344;28;19932;-53
2023/10/22 11:59:29;;;;;;;;;;;18.80;82.10;;;;;;4154032;28;19936;-55
2023/10/22 12:02:10;;;;;;;;;;;18.80;82.50;;;;;;4153106;28;19951;-55
2023/10/22 12:04:50;;;;;;;;;;;18.80;81.60;;;;;;4138471;28;19979;-46
2023/10/22 12:07:31;;;;;;;;;;;18.80;81.60;;;;;;4125459;28;19933;-48
2023/10/22 12:10:12;;;;;;;;;;;18.80;82.50;;;;;;4134299;28;19932;-54
2023/10/22 12:12:54;;;;;;;;;;;18.70;81.20;;;;;;4137331;28;19932;-55
2023/10/22 12:15:35;;;;;;;;;;;18.70;81.40;;;;;;4156266;28;19932;-55
2023/10/22 12:18:16;;;;;;;;;;;18.70;82.00;;;;;;4142188;28;19933;-55
2023/10/22 12:20:57;;;;;;;;;;;18.70;81.60;;;;;;4156207;28;19936;-50
2023/10/22 12:23:37;;;;;;;;;;;18.70;82.00;;;;;;4156522;28;19934;-48
2023/10/22 12:26:28;;;;;;;;;;;18.70;82.00;;;;;;4141249;28;22535;-52
2023/10/22 12:29:10;;;;;;;;;;;18.70;81.60;;;;;;4139349;28;19936;-51
2023/10/22 12:31:51;;;;;;;;;;;18.70;81.00;;;;;;4166215;28;20381;-48
2023/10/22 12:34:32;;;;;;;;;;;18.70;81.30;;;;;;4155643;28;19936;-47
2023/10/22 12:37:12;;;;;;;;;;;18.70;81.90;;;;;;4157370;28;20400;-47
2023/10/22 12:39:53;;;;;;;;;;;18.60;83.10;;;;;;4141870;28;19944;-47
2023/10/22 12:42:40;;;;;;;;;;;18.60;82.60;;;;;;4139917;28;19955;-49
2023/10/22 12:45:22;;;;;;;;;;;18.60;82.90;;;;;;4140486;28;19975;-50
2023/10/22 12:48:03;;;;;;;;;;;18.60;83.00;;;;;;4123957;28;19952;-50
2023/10/22 12:50:47;;;;;;;;;;;18.60;83.00;;;;;;4128266;28;19937;-48
2023/10/22 12:53:28;;;;;;;;;;;18.70;83.00;;;;;;4125626;28;19937;-50
2023/10/22 12:56:09;;;;;;;;;;;18.70;82.20;;;;;;4130379;28;19932;-47
2023/10/22 12:58:51;;;;;;;;;;;18.70;81.30;;;;;;4140373;28;20568;-48
2023/10/22 13:01:34;;;;;;;;;;;18.70;81.60;;;;;;4140689;28;19936;-47
2023/10/22 13:04:14;;;;;;;;;;;18.70;81.30;;;;;;4153451;28;19951;-47
2023/10/22 13:06:55;;;;;;;;;;;18.70;81.60;;;;;;4155361;28;19936;-47
2023/10/22 13:09:36;;;;;;;;;;;18.60;82.40;;;;;;4150353;28;19932;-48
2023/10/22 13:12:17;;;;;;;;;;;18.60;82.40;;;;;;4151668;28;19936;-50
2023/10/22 13:14:58;;;;;;;;;;;18.60;82.10;;;;;;4155297;28;19932;-48
2023/10/22 13:17:40;;;;;;;;;;;18.60;82.20;;;;;;4155430;28;19967;-56
2023/10/22 13:20:21;;;;;;;;;;;18.50;82.90;;;;;;4156632;28;19936;-53
2023/10/22 13:23:02;;;;;;;;;;;18.50;83.30;;;;;;4154469;28;19971;-49
2023/10/22 13:25:43;;;;;;;;;;;18.50;84.50;;;;;;4155237;28;19932;-51
2023/10/22 13:28:24;;;;;;;;;;;18.50;83.30;;;;;;4160193;28;19933;-48
2023/10/22 13:31:05;;;;;;;;;;;18.50;83.10;;;;;;4152803;28;20308;-48
2023/10/22 13:33:47;;;;;;;;;;;18.50;83.10;;;;;;4153524;28;20038;-47
2023/10/22 13:36:29;;;;;;;;;;;18.40;83.30;;;;;;4152625;28;20003;-47
2023/10/22 13:39:09;;;;;;;;;;;18.40;83.10;;;;;;4152944;28;20281;-55
2023/10/22 13:41:50;;;;;;;;;;;18.40;83.20;;;;;;4138392;28;19983;-50
2023/10/22 13:44:31;;;;;;;;;;;18.30;82.20;;;;;;4154008;28;19979;-55
2023/10/22 13:47:12;;;;;;;;;;;18.30;83.20;;;;;;4156290;28;20393;-52
2023/10/22 13:49:54;;;;;;;;;;;18.30;84.10;;;;;;4154977;28;19933;-47
2023/10/22 13:52:34;;;;;;;;;;;18.30;83.60;;;;;;4151303;28;20107;-54
2023/10/22 13:55:15;;;;;;;;;;;18.20;83.70;;;;;;4124132;28;19932;-55
2023/10/22 13:57:55;;;;;;;;;;;18.20;83.20;;;;;;4124460;28;19937;-53
2023/10/22 14:00:39;;;;;;;;;;;18.20;84.30;;;;;;4126477;28;19979;-56
2023/10/22 14:03:20;;;;;;;;;;;18.20;83.10;;;;;;4136365;28;19936;-56
2023/10/22 14:06:02;;;;;;;;;;;18.20;84.10;;;;;;4140778;28;19968;-56
2023/10/22 14:08:43;;;;;;;;;;;18.20;84.70;;;;;;4142483;28;20059;-51
2023/10/22 14:11:25;;;;;;;;;;;18.20;84.30;;;;;;4148774;28;19932;-50
2023/10/22 14:14:07;;;;;;;;;;;18.10;83.90;;;;;;4154648;28;19936;-51
2023/10/22 14:16:47;;;;;;;;;;;18.20;84.50;;;;;;4155208;28;20476;-49
2023/10/22 14:19:28;;;;;;;;;;;18.20;85.00;;;;;;4154922;28;19932;-51
2023/10/22 14:22:10;;;;;;;;;;;18.20;84.30;;;;;;4154507;28;19936;-52
2023/10/22 14:24:55;;;;;;;;;;;18.20;85.20;;;;;;4153715;28;20015;-50
2023/10/22 14:27:36;;;;;;;;;;;18.20;85.30;;;;;;4154032;28;19932;-48
2023/10/22 14:30:17;;;;;;;;;;;18.10;85.30;;;;;;4139158;28;20015;-51
2023/10/22 14:32:57;;;;;;;;;;;18.20;85.80;;;;;;4138356;28;20302;-47
2023/10/22 14:35:38;;;;;;;;;;;18.10;86.10;;;;;;4137644;28;19972;-55
2023/10/22 14:38:21;;;;;;;;;;;18.20;85.90;;;;;;4132958;28;19936;-55
2023/10/22 14:41:02;;;;;;;;;;;18.10;86.00;;;;;;4153150;28;19932;-49
2023/10/22 14:43:43;;;;;;;;;;;18.10;85.90;;;;;;4152969;28;19933;-49
2023/10/22 14:46:23;;;;;;;;;;;18.10;86.20;;;;;;4154802;28;19936;-51
2023/10/22 14:49:04;;;;;;;;;;;18.10;86.10;;;;;;4153602;28;19947;-48
2023/10/22 14:51:45;;;;;;;;;;;18.10;86.30;;;;;;4136250;28;20038;-52
2023/10/22 14:54:27;;;;;;;;;;;18.10;86.30;;;;;;4153288;28;20293;-48
2023/10/22 14:57:08;;;;;;;;;;;18.10;87.50;;;;;;4152143;28;20396;-49
2023/10/22 14:59:49;;;;;;;;;;;18.00;86.70;;;;;;4153164;28;20606;-55
2023/10/22 15:02:29;;;;;;;;;;;18.10;86.70;;;;;;4139053;28;19972;-49
2023/10/22 15:05:10;;;;;;;;;;;18.10;86.60;;;;;;4153346;28;19932;-48
2023/10/22 15:07:51;;;;;;;;;;;18.10;86.80;;;;;;4152357;28;20351;-48
2023/10/22 15:10:36;;;;;;;;;;;18.10;87.00;;;;;;4150010;28;19936;-54
2023/10/22 15:13:17;;;;;;;;;;;18.10;86.80;;;;;;4151127;28;19932;-56
2023/10/22 15:15:59;;;;;;;;;;;18.10;86.90;;;;;;4152865;28;20377;-48
2023/10/22 15:18:40;;;;;;;;;;;18.10;87.20;;;;;;4151436;28;19978;-48
2023/10/22 15:21:22;;;;;;;;;;;18.10;87.60;;;;;;4151059;28;19956;-53
2023/10/22 15:24:03;;;;;;;;;;;18.10;87.00;;;;;;4149648;28;19932;-54
2023/10/22 15:26:45;;;;;;;;;;;18.10;87.10;;;;;;4152157;28;19932;-55
2023/10/22 15:29:28;;;;;;;;;;;18.10;87.30;;;;;;4152059;28;20063;-55
2023/10/22 15:32:09;;;;;;;;;;;18.10;87.80;;;;;;4134091;28;19948;-54
2023/10/22 15:34:50;;;;;;;;;;;18.10;88.00;;;;;;4136399;28;19956;-53
2023/10/22 15:37:31;;;;;;;;;;;18.10;87.80;;;;;;4134543;28;20486;-53
2023/10/22 15:40:12;;;;;;;;;;;18.00;87.80;;;;;;4136431;28;19937;-47